Terminal Aerodrome Forecast
Issued by NWS Wilmington, OH

Current Version | Previous Version | Graphics & Text | Print | Product List | Glossary On
Versions: 1 2 3 4 5 6 7 8 9 10 11 12 13 14 15 16 17 18 19
851
FTUS41 KILN 201707 AAB
TAFILN
TAF AMD
KILN 201707Z 2017/2112 23019G29KT P6SM SCT050 BKN250
     FM210000 23014G20KT P6SM -SHRA VCTS BKN040CB
      TEMPO 2102/2104 3SM -TSRA BKN030CB
     FM210400 25012KT 5SM -SHRA OVC035
     FM210600 29009KT P6SM BKN015=

USA.gov is the U.S. government's official web portal to all federal, state and local government web resources and services.